sensor_id;sensor_type;location;lat;lon;timestamp;P1;durP1;ratioP1;P2;durP2;ratioP2
21162;SDS011;10739;52.198;20.908;2023-10-09T00:01:04;8.35;;;4.03;;
21162;SDS011;10739;52.198;20.908;2023-10-09T00:03:46;7.28;;;4.07;;
21162;SDS011;10739;52.198;20.908;2023-10-09T00:06:17;7.68;;;3.65;;
21162;SDS011;10739;52.198;20.908;2023-10-09T00:08:49;11.32;;;4.40;;
21162;SDS011;10739;52.198;20.908;2023-10-09T00:11:20;9.35;;;4.60;;
21162;SDS011;10739;52.198;20.908;2023-10-09T00:13:46;9.05;;;4.10;;
21162;SDS011;10739;52.198;20.908;2023-10-09T00:16:23;11.65;;;4.07;;
21162;SDS011;10739;52.198;20.908;2023-10-09T00:19:00;11.75;;;4.20;;
21162;SDS011;10739;52.198;20.908;2023-10-09T00:21:48;9.38;;;4.30;;
21162;SDS011;10739;52.198;20.908;2023-10-09T00:24:15;7.70;;;4.15;;
21162;SDS011;10739;52.198;20.908;2023-10-09T00:26:49;9.95;;;4.50;;
21162;SDS011;10739;52.198;20.908;2023-10-09T00:29:34;6.75;;;3.75;;
21162;SDS011;10739;52.198;20.908;2023-10-09T00:32:04;9.10;;;3.83;;
21162;SDS011;10739;52.198;20.908;2023-10-09T00:34:52;6.95;;;3.88;;
21162;SDS011;10739;52.198;20.908;2023-10-09T00:37:25;11.85;;;3.92;;
21162;SDS011;10739;52.198;20.908;2023-10-09T00:39:59;8.88;;;3.95;;
21162;SDS011;10739;52.198;20.908;2023-10-09T00:42:25;7.22;;;4.10;;
21162;SDS011;10739;52.198;20.908;2023-10-09T00:45:03;10.35;;;3.95;;
21162;SDS011;10739;52.198;20.908;2023-10-09T00:47:30;9.60;;;3.92;;
21162;SDS011;10739;52.198;20.908;2023-10-09T00:50:02;9.68;;;4.32;;
21162;SDS011;10739;52.198;20.908;2023-10-09T00:52:35;8.40;;;3.80;;
21162;SDS011;10739;52.198;20.908;2023-10-09T00:55:15;7.45;;;4.00;;
21162;SDS011;10739;52.198;20.908;2023-10-09T00:57:53;10.13;;;4.22;;
21162;SDS011;10739;52.198;20.908;2023-10-09T01:00:23;9.02;;;4.05;;
21162;SDS011;10739;52.198;20.908;2023-10-09T01:03:13;7.38;;;4.18;;
21162;SDS011;10739;52.198;20.908;2023-10-09T01:05:45;10.65;;;4.10;;
21162;SDS011;10739;52.198;20.908;2023-10-09T01:08:34;9.63;;;4.10;;
21162;SDS011;10739;52.198;20.908;2023-10-09T01:11:07;7.60;;;4.25;;
21162;SDS011;10739;52.198;20.908;2023-10-09T01:13:55;14.52;;;4.32;;
21162;SDS011;10739;52.198;20.908;2023-10-09T01:16:34;10.68;;;4.18;;
21162;SDS011;10739;52.198;20.908;2023-10-09T01:19:00;6.03;;;3.85;;
21162;SDS011;10739;52.198;20.908;2023-10-09T01:21:31;8.93;;;3.88;;
21162;SDS011;10739;52.198;20.908;2023-10-09T01:23:57;12.18;;;3.85;;
21162;SDS011;10739;52.198;20.908;2023-10-09T01:26:33;6.97;;;3.65;;
21162;SDS011;10739;52.198;20.908;2023-10-09T01:29:10;8.30;;;4.38;;
21162;SDS011;10739;52.198;20.908;2023-10-09T01:31:53;8.88;;;4.05;;
21162;SDS011;10739;52.198;20.908;2023-10-09T01:34:24;8.18;;;4.15;;
21162;SDS011;10739;52.198;20.908;2023-10-09T01:37:14;9.20;;;4.18;;
21162;SDS011;10739;52.198;20.908;2023-10-09T01:39:45;10.30;;;3.78;;
21162;SDS011;10739;52.198;20.908;2023-10-09T01:42:13;10.18;;;3.80;;
21162;SDS011;10739;52.198;20.908;2023-10-09T01:44:55;8.95;;;4.63;;
21162;SDS011;10739;52.198;20.908;2023-10-09T01:47:24;8.98;;;3.78;;
21162;SDS011;10739;52.198;20.908;2023-10-09T01:49:56;7.38;;;4.22;;
21162;SDS011;10739;52.198;20.908;2023-10-09T01:52:23;8.82;;;4.38;;
21162;SDS011;10739;52.198;20.908;2023-10-09T01:54:50;6.68;;;3.45;;
21162;SDS011;10739;52.198;20.908;2023-10-09T01:57:18;7.38;;;4.07;;
21162;SDS011;10739;52.198;20.908;2023-10-09T01:59:48;6.93;;;3.45;;
21162;SDS011;10739;52.198;20.908;2023-10-09T02:02:19;8.40;;;3.72;;
21162;SDS011;10739;52.198;20.908;2023-10-09T02:04:53;7.40;;;3.92;;
21162;SDS011;10739;52.198;20.908;2023-10-09T02:07:41;8.23;;;4.18;;
21162;SDS011;10739;52.198;20.908;2023-10-09T02:10:17;7.82;;;4.25;;
21162;SDS011;10739;52.198;20.908;2023-10-09T02:13:00;7.78;;;4.13;;
21162;SDS011;10739;52.198;20.908;2023-10-09T02:15:35;8.00;;;3.97;;
21162;SDS011;10739;52.198;20.908;2023-10-09T02:18:13;7.70;;;4.38;;
21162;SDS011;10739;52.198;20.908;2023-10-09T02:20:52;8.10;;;4.55;;
21162;SDS011;10739;52.198;20.908;2023-10-09T02:23:39;8.02;;;4.63;;
21162;SDS011;10739;52.198;20.908;2023-10-09T02:26:11;9.43;;;4.43;;
21162;SDS011;10739;52.198;20.908;2023-10-09T02:28:45;9.85;;;3.97;;
21162;SDS011;10739;52.198;20.908;2023-10-09T02:31:24;9.38;;;4.60;;
21162;SDS011;10739;52.198;20.908;2023-10-09T02:33:54;11.43;;;4.82;;
21162;SDS011;10739;52.198;20.908;2023-10-09T02:36:21;11.25;;;4.47;;
21162;SDS011;10739;52.198;20.908;2023-10-09T02:38:48;7.38;;;4.18;;
21162;SDS011;10739;52.198;20.908;2023-10-09T02:41:17;6.25;;;4.22;;
21162;SDS011;10739;52.198;20.908;2023-10-09T02:43:46;9.43;;;4.45;;
21162;SDS011;10739;52.198;20.908;2023-10-09T02:46:13;7.22;;;4.07;;
21162;SDS011;10739;52.198;20.908;2023-10-09T02:48:44;6.57;;;3.80;;
21162;SDS011;10739;52.198;20.908;2023-10-09T02:51:21;8.38;;;3.78;;
21162;SDS011;10739;52.198;20.908;2023-10-09T02:53:49;8.73;;;3.70;;
21162;SDS011;10739;52.198;20.908;2023-10-09T02:56:15;5.97;;;3.88;;
21162;SDS011;10739;52.198;20.908;2023-10-09T02:58:52;8.60;;;4.47;;
21162;SDS011;10739;52.198;20.908;2023-10-09T03:01:19;7.97;;;4.18;;
21162;SDS011;10739;52.198;20.908;2023-10-09T03:03:46;8.93;;;4.70;;
21162;SDS011;10739;52.198;20.908;2023-10-09T03:06:13;10.10;;;4.93;;
21162;SDS011;10739;52.198;20.908;2023-10-09T03:08:50;9.98;;;4.72;;
21162;SDS011;10739;52.198;20.908;2023-10-09T03:11:17;9.32;;;5.05;;
21162;SDS011;10739;52.198;20.908;2023-10-09T03:13:44;12.43;;;5.60;;
21162;SDS011;10739;52.198;20.908;2023-10-09T03:16:11;11.88;;;5.05;;
21162;SDS011;10739;52.198;20.908;2023-10-09T03:18:52;9.18;;;4.72;;
21162;SDS011;10739;52.198;20.908;2023-10-09T03:21:19;11.32;;;5.18;;
21162;SDS011;10739;52.198;20.908;2023-10-09T03:23:49;10.55;;;4.40;;
21162;SDS011;10739;52.198;20.908;2023-10-09T03:26:18;12.10;;;5.07;;
21162;SDS011;10739;52.198;20.908;2023-10-09T03:28:46;8.13;;;4.03;;
21162;SDS011;10739;52.198;20.908;2023-10-09T03:31:13;12.48;;;5.00;;
21162;SDS011;10739;52.198;20.908;2023-10-09T03:33:40;15.50;;;4.88;;
21162;SDS011;10739;52.198;20.908;2023-10-09T03:36:07;8.63;;;4.65;;
21162;SDS011;10739;52.198;20.908;2023-10-09T03:38:37;6.78;;;4.30;;
21162;SDS011;10739;52.198;20.908;2023-10-09T03:41:04;9.52;;;4.70;;
21162;SDS011;10739;52.198;20.908;2023-10-09T03:43:35;9.50;;;4.63;;
21162;SDS011;10739;52.198;20.908;2023-10-09T03:46:09;7.82;;;4.30;;
21162;SDS011;10739;52.198;20.908;2023-10-09T03:48:51;7.47;;;4.53;;
21162;SDS011;10739;52.198;20.908;2023-10-09T03:51:21;10.45;;;4.50;;
21162;SDS011;10739;52.198;20.908;2023-10-09T03:53:49;12.43;;;4.90;;
21162;SDS011;10739;52.198;20.908;2023-10-09T03:56:17;10.27;;;4.63;;
21162;SDS011;10739;52.198;20.908;2023-10-09T03:58:49;8.48;;;4.53;;
21162;SDS011;10739;52.198;20.908;2023-10-09T04:01:20;8.05;;;4.55;;
21162;SDS011;10739;52.198;20.908;2023-10-09T04:04:06;10.07;;;4.55;;
21162;SDS011;10739;52.198;20.908;2023-10-09T04:06:35;9.73;;;4.75;;
21162;SDS011;10739;52.198;20.908;2023-10-09T04:09:03;8.45;;;4.50;;
21162;SDS011;10739;52.198;20.908;2023-10-09T04:11:47;8.52;;;4.57;;
21162;SDS011;10739;52.198;20.908;2023-10-09T04:14:45;10.40;;;4.28;;
21162;SDS011;10739;52.198;20.908;2023-10-09T04:17:19;10.23;;;4.43;;
21162;SDS011;10739;52.198;20.908;2023-10-09T04:19:59;6.78;;;4.05;;
21162;SDS011;10739;52.198;20.908;2023-10-09T04:22:59;8.77;;;4.28;;
21162;SDS011;10739;52.198;20.908;2023-10-09T04:25:30;7.20;;;3.97;;
21162;SDS011;10739;52.198;20.908;2023-10-09T04:28:11;8.32;;;4.20;;
21162;SDS011;10739;52.198;20.908;2023-10-09T04:30:38;7.35;;;4.32;;
21162;SDS011;10739;52.198;20.908;2023-10-09T04:33:21;7.20;;;4.25;;
21162;SDS011;10739;52.198;20.908;2023-10-09T04:36:07;8.95;;;4.78;;
21162;SDS011;10739;52.198;20.908;2023-10-09T04:38:42;7.78;;;4.78;;
21162;SDS011;10739;52.198;20.908;2023-10-09T04:41:23;7.95;;;4.30;;
21162;SDS011;10739;52.198;20.908;2023-10-09T04:43:53;8.90;;;4.68;;
21162;SDS011;10739;52.198;20.908;2023-10-09T04:46:43;8.68;;;4.03;;
21162;SDS011;10739;52.198;20.908;2023-10-09T04:49:32;8.85;;;4.85;;
21162;SDS011;10739;52.198;20.908;2023-10-09T04:52:19;10.48;;;4.45;;
21162;SDS011;10739;52.198;20.908;2023-10-09T04:54:54;8.27;;;4.50;;
21162;SDS011;10739;52.198;20.908;2023-10-09T04:57:30;7.55;;;4.07;;
21162;SDS011;10739;52.198;20.908;2023-10-09T05:00:06;9.05;;;3.90;;
21162;SDS011;10739;52.198;20.908;2023-10-09T05:05:36;7.05;;;4.10;;
21162;SDS011;10739;52.198;20.908;2023-10-09T05:08:13;6.30;;;4.00;;
21162;SDS011;10739;52.198;20.908;2023-10-09T05:10:54;9.05;;;3.70;;
21162;SDS011;10739;52.198;20.908;2023-10-09T05:16:14;10.40;;;3.47;;
21162;SDS011;10739;52.198;20.908;2023-10-09T05:18:51;7.35;;;3.92;;
21162;SDS011;10739;52.198;20.908;2023-10-09T05:21:24;6.65;;;3.92;;
21162;SDS011;10739;52.198;20.908;2023-10-09T05:23:57;10.63;;;3.83;;
21162;SDS011;10739;52.198;20.908;2023-10-09T05:26:49;9.07;;;3.85;;
21162;SDS011;10739;52.198;20.908;2023-10-09T05:29:16;7.97;;;4.30;;
21162;SDS011;10739;52.198;20.908;2023-10-09T05:32:00;6.40;;;3.60;;
21162;SDS011;10739;52.198;20.908;2023-10-09T05:39:58;9.65;;;4.50;;
21162;SDS011;10739;52.198;20.908;2023-10-09T05:42:33;10.30;;;3.75;;
21162;SDS011;10739;52.198;20.908;2023-10-09T05:45:16;10.05;;;4.55;;
21162;SDS011;10739;52.198;20.908;2023-10-09T05:47:46;8.43;;;4.50;;
21162;SDS011;10739;52.198;20.908;2023-10-09T05:50:43;9.32;;;3.95;;
21162;SDS011;10739;52.198;20.908;2023-10-09T05:53:16;6.38;;;3.60;;
21162;SDS011;10739;52.198;20.908;2023-10-09T05:56:20;9.90;;;3.53;;
21162;SDS011;10739;52.198;20.908;2023-10-09T05:59:05;8.40;;;3.22;;
21162;SDS011;10739;52.198;20.908;2023-10-09T06:01:37;7.00;;;3.63;;
21162;SDS011;10739;52.198;20.908;2023-10-09T06:04:15;10.05;;;4.35;;
21162;SDS011;10739;52.198;20.908;2023-10-09T06:06:44;7.60;;;4.05;;
21162;SDS011;10739;52.198;20.908;2023-10-09T06:09:12;5.85;;;3.67;;
21162;SDS011;10739;52.198;20.908;2023-10-09T06:11:42;8.48;;;4.18;;
21162;SDS011;10739;52.198;20.908;2023-10-09T06:14:18;6.10;;;3.53;;
21162;SDS011;10739;52.198;20.908;2023-10-09T06:17:11;7.00;;;3.92;;
21162;SDS011;10739;52.198;20.908;2023-10-09T06:19:48;7.32;;;3.63;;
21162;SDS011;10739;52.198;20.908;2023-10-09T06:22:17;6.40;;;3.40;;
21162;SDS011;10739;52.198;20.908;2023-10-09T06:25:01;7.50;;;4.18;;
21162;SDS011;10739;52.198;20.908;2023-10-09T06:27:38;8.60;;;3.92;;
21162;SDS011;10739;52.198;20.908;2023-10-09T06:30:22;7.93;;;3.80;;
21162;SDS011;10739;52.198;20.908;2023-10-09T06:32:53;8.00;;;4.20;;
21162;SDS011;10739;52.198;20.908;2023-10-09T06:35:45;4.85;;;3.35;;
21162;SDS011;10739;52.198;20.908;2023-10-09T06:38:19;9.55;;;3.80;;
21162;SDS011;10739;52.198;20.908;2023-10-09T06:40:49;9.07;;;3.75;;
21162;SDS011;10739;52.198;20.908;2023-10-09T06:43:17;6.90;;;3.53;;
21162;SDS011;10739;52.198;20.908;2023-10-09T06:45:47;10.48;;;4.82;;
21162;SDS011;10739;52.198;20.908;2023-10-09T06:48:24;11.75;;;4.63;;
21162;SDS011;10739;52.198;20.908;2023-10-09T06:51:03;13.43;;;4.18;;
21162;SDS011;10739;52.198;20.908;2023-10-09T06:53:53;9.30;;;4.07;;
21162;SDS011;10739;52.198;20.908;2023-10-09T06:58:57;9.77;;;4.20;;
21162;SDS011;10739;52.198;20.908;2023-10-09T07:01:51;7.70;;;3.85;;
21162;SDS011;10739;52.198;20.908;2023-10-09T07:04:36;8.75;;;3.70;;
21162;SDS011;10739;52.198;20.908;2023-10-09T07:07:02;7.72;;;3.83;;
21162;SDS011;10739;52.198;20.908;2023-10-09T07:09:35;14.40;;;4.28;;
21162;SDS011;10739;52.198;20.908;2023-10-09T07:12:10;14.23;;;3.78;;
21162;SDS011;10739;52.198;20.908;2023-10-09T07:14:45;6.65;;;4.05;;
21162;SDS011;10739;52.198;20.908;2023-10-09T07:17:12;7.90;;;4.03;;
21162;SDS011;10739;52.198;20.908;2023-10-09T07:19:47;8.23;;;3.92;;
21162;SDS011;10739;52.198;20.908;2023-10-09T07:22:15;8.45;;;3.40;;
21162;SDS011;10739;52.198;20.908;2023-10-09T07:24:52;10.55;;;3.97;;
21162;SDS011;10739;52.198;20.908;2023-10-09T07:27:23;11.70;;;3.70;;
21162;SDS011;10739;52.198;20.908;2023-10-09T07:30:12;7.75;;;3.70;;
21162;SDS011;10739;52.198;20.908;2023-10-09T07:33:05;7.20;;;4.25;;
21162;SDS011;10739;52.198;20.908;2023-10-09T07:35:40;9.85;;;3.95;;
21162;SDS011;10739;52.198;20.908;2023-10-09T07:40:49;9.50;;;3.70;;
21162;SDS011;10739;52.198;20.908;2023-10-09T07:43:33;4.88;;;3.33;;
21162;SDS011;10739;52.198;20.908;2023-10-09T07:46:04;6.78;;;3.25;;
21162;SDS011;10739;52.198;20.908;2023-10-09T07:48:50;7.22;;;3.42;;
21162;SDS011;10739;52.198;20.908;2023-10-09T07:51:19;8.40;;;3.55;;
21162;SDS011;10739;52.198;20.908;2023-10-09T07:53:54;7.80;;;3.90;;
21162;SDS011;10739;52.198;20.908;2023-10-09T07:56:35;6.30;;;3.38;;
21162;SDS011;10739;52.198;20.908;2023-10-09T07:59:15;8.40;;;3.40;;
21162;SDS011;10739;52.198;20.908;2023-10-09T08:01:46;5.20;;;3.08;;
21162;SDS011;10739;52.198;20.908;2023-10-09T08:04:18;5.35;;;3.30;;
21162;SDS011;10739;52.198;20.908;2023-10-09T08:07:08;8.05;;;3.80;;
21162;SDS011;10739;52.198;20.908;2023-10-09T08:09:47;5.55;;;3.50;;
21162;SDS011;10739;52.198;20.908;2023-10-09T08:12:14;6.47;;;3.38;;
21162;SDS011;10739;52.198;20.908;2023-10-09T08:15:03;6.88;;;3.20;;
21162;SDS011;10739;52.198;20.908;2023-10-09T08:17:47;5.72;;;3.00;;
21162;SDS011;10739;52.198;20.908;2023-10-09T08:20:25;4.97;;;2.90;;
21162;SDS011;10739;52.198;20.908;2023-10-09T08:22:52;5.05;;;3.08;;
21162;SDS011;10739;52.198;20.908;2023-10-09T08:25:22;6.30;;;2.70;;
21162;SDS011;10739;52.198;20.908;2023-10-09T08:27:56;5.60;;;3.20;;
21162;SDS011;10739;52.198;20.908;2023-10-09T08:30:40;5.28;;;3.03;;
21162;SDS011;10739;52.198;20.908;2023-10-09T08:33:14;8.25;;;3.45;;
21162;SDS011;10739;52.198;20.908;2023-10-09T08:35:52;7.22;;;3.45;;
21162;SDS011;10739;52.198;20.908;2023-10-09T08:38:30;14.38;;;4.28;;
21162;SDS011;10739;52.198;20.908;2023-10-09T08:41:06;9.23;;;4.45;;
21162;SDS011;10739;52.198;20.908;2023-10-09T08:43:45;8.90;;;3.80;;
21162;SDS011;10739;52.198;20.908;2023-10-09T08:46:20;9.75;;;3.45;;
21162;SDS011;10739;52.198;20.908;2023-10-09T08:48:52;7.80;;;3.58;;
21162;SDS011;10739;52.198;20.908;2023-10-09T08:51:25;4.57;;;2.90;;
21162;SDS011;10739;52.198;20.908;2023-10-09T08:53:52;6.10;;;3.03;;
21162;SDS011;10739;52.198;20.908;2023-10-09T08:56:20;6.75;;;2.90;;
21162;SDS011;10739;52.198;20.908;2023-10-09T09:01:22;4.65;;;2.92;;
21162;SDS011;10739;52.198;20.908;2023-10-09T09:03:50;5.60;;;2.40;;
21162;SDS011;10739;52.198;20.908;2023-10-09T09:06:21;8.13;;;3.22;;
21162;SDS011;10739;52.198;20.908;2023-10-09T09:08:49;6.50;;;3.28;;
21162;SDS011;10739;52.198;20.908;2023-10-09T09:11:24;4.82;;;2.42;;
21162;SDS011;10739;52.198;20.908;2023-10-09T09:16:30;6.00;;;2.72;;
21162;SDS011;10739;52.198;20.908;2023-10-09T09:19:03;7.85;;;3.30;;
21162;SDS011;10739;52.198;20.908;2023-10-09T09:21:35;7.88;;;2.80;;
21162;SDS011;10739;52.198;20.908;2023-10-09T09:24:05;3.45;;;2.10;;
21162;SDS011;10739;52.198;20.908;2023-10-09T09:37:20;5.05;;;2.35;;
21162;SDS011;10739;52.198;20.908;2023-10-09T09:39:57;3.03;;;1.77;;
21162;SDS011;10739;52.198;20.908;2023-10-09T09:42:43;5.38;;;2.30;;
21162;SDS011;10739;52.198;20.908;2023-10-09T09:45:16;8.35;;;2.45;;
21162;SDS011;10739;52.198;20.908;2023-10-09T09:47:48;4.80;;;2.60;;
21162;SDS011;10739;52.198;20.908;2023-10-09T09:50:18;4.47;;;2.22;;
21162;SDS011;10739;52.198;20.908;2023-10-09T09:52:54;3.22;;;2.03;;
21162;SDS011;10739;52.198;20.908;2023-10-09T09:55:26;4.45;;;2.50;;
21162;SDS011;10739;52.198;20.908;2023-10-09T09:58:01;4.75;;;2.38;;
21162;SDS011;10739;52.198;20.908;2023-10-09T10:00:33;5.25;;;2.30;;
21162;SDS011;10739;52.198;20.908;2023-10-09T10:03:10;6.53;;;2.70;;
21162;SDS011;10739;52.198;20.908;2023-10-09T10:06:05;3.75;;;2.30;;
21162;SDS011;10739;52.198;20.908;2023-10-09T10:08:37;4.93;;;2.00;;
21162;SDS011;10739;52.198;20.908;2023-10-09T10:11:07;2.47;;;1.90;;
21162;SDS011;10739;52.198;20.908;2023-10-09T10:16:09;6.00;;;2.20;;
21162;SDS011;10739;52.198;20.908;2023-10-09T10:21:34;5.97;;;2.28;;
21162;SDS011;10739;52.198;20.908;2023-10-09T10:24:40;3.70;;;2.00;;
21162;SDS011;10739;52.198;20.908;2023-10-09T10:29:43;3.95;;;1.92;;
21162;SDS011;10739;52.198;20.908;2023-10-09T10:32:58;2.60;;;1.90;;
21162;SDS011;10739;52.198;20.908;2023-10-09T10:35:42;7.57;;;2.50;;
21162;SDS011;10739;52.198;20.908;2023-10-09T10:38:30;4.70;;;2.45;;
21162;SDS011;10739;52.198;20.908;2023-10-09T10:41:18;4.85;;;2.30;;
21162;SDS011;10739;52.198;20.908;2023-10-09T10:43:47;2.67;;;1.80;;
21162;SDS011;10739;52.198;20.908;2023-10-09T10:46:18;4.00;;;2.30;;
21162;SDS011;10739;52.198;20.908;2023-10-09T10:49:00;5.60;;;2.03;;
21162;SDS011;10739;52.198;20.908;2023-10-09T10:51:40;4.35;;;2.13;;
21162;SDS011;10739;52.198;20.908;2023-10-09T10:54:20;4.90;;;1.95;;
21162;SDS011;10739;52.198;20.908;2023-10-09T10:56:59;3.75;;;2.03;;
21162;SDS011;10739;52.198;20.908;2023-10-09T10:59:32;4.40;;;2.60;;
21162;SDS011;10739;52.198;20.908;2023-10-09T11:02:10;4.90;;;2.00;;
21162;SDS011;10739;52.198;20.908;2023-10-09T11:04:37;5.43;;;2.30;;
21162;SDS011;10739;52.198;20.908;2023-10-09T11:07:05;3.45;;;2.33;;
21162;SDS011;10739;52.198;20.908;2023-10-09T11:09:47;5.35;;;2.40;;
21162;SDS011;10739;52.198;20.908;2023-10-09T11:12:31;5.60;;;2.45;;
21162;SDS011;10739;52.198;20.908;2023-10-09T11:15:05;4.95;;;2.90;;
21162;SDS011;10739;52.198;20.908;2023-10-09T11:17:37;5.28;;;2.50;;
21162;SDS011;10739;52.198;20.908;2023-10-09T11:20:06;6.25;;;2.70;;
21162;SDS011;10739;52.198;20.908;2023-10-09T11:22:49;5.00;;;2.53;;
21162;SDS011;10739;52.198;20.908;2023-10-09T11:25:38;4.28;;;2.72;;
21162;SDS011;10739;52.198;20.908;2023-10-09T11:28:19;11.57;;;3.03;;
21162;SDS011;10739;52.198;20.908;2023-10-09T11:31:11;3.92;;;2.53;;
21162;SDS011;10739;52.198;20.908;2023-10-09T11:33:48;6.28;;;3.20;;
21162;SDS011;10739;52.198;20.908;2023-10-09T11:36:20;4.47;;;3.05;;
21162;SDS011;10739;52.198;20.908;2023-10-09T11:38:58;6.75;;;3.33;;
21162;SDS011;10739;52.198;20.908;2023-10-09T11:41:48;7.07;;;3.40;;
21162;SDS011;10739;52.198;20.908;2023-10-09T11:44:15;6.22;;;3.53;;
21162;SDS011;10739;52.198;20.908;2023-10-09T11:47:02;7.38;;;3.35;;
21162;SDS011;10739;52.198;20.908;2023-10-09T11:49:55;5.72;;;3.38;;
21162;SDS011;10739;52.198;20.908;2023-10-09T11:52:26;7.10;;;3.80;;
21162;SDS011;10739;52.198;20.908;2023-10-09T11:55:21;8.10;;;3.40;;
21162;SDS011;10739;52.198;20.908;2023-10-09T11:57:51;4.85;;;3.28;;
21162;SDS011;10739;52.198;20.908;2023-10-09T12:00:17;7.32;;;3.63;;
21162;SDS011;10739;52.198;20.908;2023-10-09T12:02:55;7.05;;;3.42;;
21162;SDS011;10739;52.198;20.908;2023-10-09T12:05:22;10.13;;;3.40;;
21162;SDS011;10739;52.198;20.908;2023-10-09T12:07:53;5.75;;;3.78;;
21162;SDS011;10739;52.198;20.908;2023-10-09T12:10:22;9.75;;;3.85;;
21162;SDS011;10739;52.198;20.908;2023-10-09T12:12:51;6.32;;;4.15;;
21162;SDS011;10739;52.198;20.908;2023-10-09T12:15:18;6.20;;;3.40;;
21162;SDS011;10739;52.198;20.908;2023-10-09T12:17:46;5.80;;;3.53;;
21162;SDS011;10739;52.198;20.908;2023-10-09T12:20:13;7.28;;;3.95;;
21162;SDS011;10739;52.198;20.908;2023-10-09T12:22:59;4.50;;;3.17;;
21162;SDS011;10739;52.198;20.908;2023-10-09T12:25:26;14.40;;;4.50;;
21162;SDS011;10739;52.198;20.908;2023-10-09T12:28:00;5.25;;;3.90;;
21162;SDS011;10739;52.198;20.908;2023-10-09T12:30:30;6.70;;;4.43;;
21162;SDS011;10739;52.198;20.908;2023-10-09T12:33:04;7.72;;;4.60;;
21162;SDS011;10739;52.198;20.908;2023-10-09T12:35:36;8.75;;;4.00;;
21162;SDS011;10739;52.198;20.908;2023-10-09T12:38:06;7.40;;;4.15;;
21162;SDS011;10739;52.198;20.908;2023-10-09T12:40:38;8.57;;;4.32;;
21162;SDS011;10739;52.198;20.908;2023-10-09T12:43:07;8.07;;;4.93;;
21162;SDS011;10739;52.198;20.908;2023-10-09T12:45:42;9.00;;;4.60;;
21162;SDS011;10739;52.198;20.908;2023-10-09T12:48:08;10.25;;;4.70;;
21162;SDS011;10739;52.198;20.908;2023-10-09T12:50:35;8.25;;;4.47;;
21162;SDS011;10739;52.198;20.908;2023-10-09T12:53:10;7.60;;;5.22;;
21162;SDS011;10739;52.198;20.908;2023-10-09T12:55:38;6.65;;;4.07;;
21162;SDS011;10739;52.198;20.908;2023-10-09T12:58:09;7.88;;;3.88;;
21162;SDS011;10739;52.198;20.908;2023-10-09T13:00:41;6.28;;;4.07;;
21162;SDS011;10739;52.198;20.908;2023-10-09T13:03:15;8.00;;;4.70;;
21162;SDS011;10739;52.198;20.908;2023-10-09T13:06:00;7.80;;;4.53;;
21162;SDS011;10739;52.198;20.908;2023-10-09T13:08:32;9.40;;;5.55;;
21162;SDS011;10739;52.198;20.908;2023-10-09T13:11:02;10.15;;;5.25;;
21162;SDS011;10739;52.198;20.908;2023-10-09T13:13:39;8.45;;;5.30;;
21162;SDS011;10739;52.198;20.908;2023-10-09T13:16:18;11.13;;;6.13;;
21162;SDS011;10739;52.198;20.908;2023-10-09T13:18:51;9.38;;;5.68;;
21162;SDS011;10739;52.198;20.908;2023-10-09T13:21:23;9.02;;;4.75;;
21162;SDS011;10739;52.198;20.908;2023-10-09T13:23:59;8.43;;;4.75;;
21162;SDS011;10739;52.198;20.908;2023-10-09T13:26:27;6.15;;;4.28;;
21162;SDS011;10739;52.198;20.908;2023-10-09T13:28:55;6.80;;;4.22;;
21162;SDS011;10739;52.198;20.908;2023-10-09T13:31:23;14.70;;;4.95;;
21162;SDS011;10739;52.198;20.908;2023-10-09T13:33:54;8.68;;;4.65;;
21162;SDS011;10739;52.198;20.908;2023-10-09T13:36:22;9.98;;;4.93;;
21162;SDS011;10739;52.198;20.908;2023-10-09T13:38:58;8.75;;;4.90;;
21162;SDS011;10739;52.198;20.908;2023-10-09T13:41:46;7.80;;;4.75;;
21162;SDS011;10739;52.198;20.908;2023-10-09T13:44:14;7.03;;;3.75;;
21162;SDS011;10739;52.198;20.908;2023-10-09T13:46:41;10.25;;;4.95;;
21162;SDS011;10739;52.198;20.908;2023-10-09T13:49:11;8.50;;;4.35;;
21162;SDS011;10739;52.198;20.908;2023-10-09T13:51:40;7.15;;;4.10;;
21162;SDS011;10739;52.198;20.908;2023-10-09T13:54:13;6.55;;;4.10;;
21162;SDS011;10739;52.198;20.908;2023-10-09T13:57:01;8.13;;;4.38;;
21162;SDS011;10739;52.198;20.908;2023-10-09T13:59:30;9.38;;;5.10;;
21162;SDS011;10739;52.198;20.908;2023-10-09T14:02:01;15.57;;;5.40;;
21162;SDS011;10739;52.198;20.908;2023-10-09T14:07:01;8.85;;;4.30;;
21162;SDS011;10739;52.198;20.908;2023-10-09T14:09:31;10.57;;;4.82;;
21162;SDS011;10739;52.198;20.908;2023-10-09T14:11:58;8.98;;;4.45;;
21162;SDS011;10739;52.198;20.908;2023-10-09T14:14:36;8.77;;;4.32;;
21162;SDS011;10739;52.198;20.908;2023-10-09T14:17:15;8.23;;;4.35;;
21162;SDS011;10739;52.198;20.908;2023-10-09T14:19:53;10.25;;;4.45;;
21162;SDS011;10739;52.198;20.908;2023-10-09T14:22:26;6.63;;;4.43;;
21162;SDS011;10739;52.198;20.908;2023-10-09T14:24:53;12.80;;;5.00;;
21162;SDS011;10739;52.198;20.908;2023-10-09T14:27:26;8.90;;;4.10;;
21162;SDS011;10739;52.198;20.908;2023-10-09T14:29:55;7.70;;;4.25;;
21162;SDS011;10739;52.198;20.908;2023-10-09T14:32:24;9.18;;;4.43;;
21162;SDS011;10739;52.198;20.908;2023-10-09T14:34:54;6.03;;;3.95;;
21162;SDS011;10739;52.198;20.908;2023-10-09T14:37:26;5.70;;;4.23;;
21162;SDS011;10739;52.198;20.908;2023-10-09T14:39:53;6.45;;;4.03;;
21162;SDS011;10739;52.198;20.908;2023-10-09T14:42:21;8.00;;;4.05;;
21162;SDS011;10739;52.198;20.908;2023-10-09T14:44:49;8.93;;;4.05;;
21162;SDS011;10739;52.198;20.908;2023-10-09T14:47:16;10.13;;;4.43;;
21162;SDS011;10739;52.198;20.908;2023-10-09T14:49:46;6.68;;;4.68;;
21162;SDS011;10739;52.198;20.908;2023-10-09T14:52:13;8.95;;;4.47;;
21162;SDS011;10739;52.198;20.908;2023-10-09T14:54:45;8.20;;;4.45;;
21162;SDS011;10739;52.198;20.908;2023-10-09T14:57:12;6.75;;;4.22;;
21162;SDS011;10739;52.198;20.908;2023-10-09T14:59:39;12.23;;;4.88;;
21162;SDS011;10739;52.198;20.908;2023-10-09T15:02:08;9.60;;;4.80;;
21162;SDS011;10739;52.198;20.908;2023-10-09T15:04:34;9.55;;;4.32;;
21162;SDS011;10739;52.198;20.908;2023-10-09T15:07:02;10.55;;;4.72;;
21162;SDS011;10739;52.198;20.908;2023-10-09T15:09:33;10.23;;;5.03;;
21162;SDS011;10739;52.198;20.908;2023-10-09T15:12:01;13.48;;;4.43;;
21162;SDS011;10739;52.198;20.908;2023-10-09T15:14:31;9.85;;;4.50;;
21162;SDS011;10739;52.198;20.908;2023-10-09T15:16:59;11.40;;;4.97;;
21162;SDS011;10739;52.198;20.908;2023-10-09T15:19:26;16.00;;;5.47;;
21162;SDS011;10739;52.198;20.908;2023-10-09T15:21:55;8.93;;;4.88;;
21162;SDS011;10739;52.198;20.908;2023-10-09T15:24:25;9.40;;;5.15;;
21162;SDS011;10739;52.198;20.908;2023-10-09T15:26:55;9.88;;;5.05;;
21162;SDS011;10739;52.198;20.908;2023-10-09T15:29:23;17.70;;;5.35;;
21162;SDS011;10739;52.198;20.908;2023-10-09T15:32:00;11.60;;;5.10;;
21162;SDS011;10739;52.198;20.908;2023-10-09T15:34:31;11.48;;;5.60;;
21162;SDS011;10739;52.198;20.908;2023-10-09T15:37:04;10.48;;;4.95;;
21162;SDS011;10739;52.198;20.908;2023-10-09T15:39:36;12.80;;;5.57;;
21162;SDS011;10739;52.198;20.908;2023-10-09T15:42:02;11.48;;;5.97;;
21162;SDS011;10739;52.198;20.908;2023-10-09T15:44:32;12.63;;;5.47;;
21162;SDS011;10739;52.198;20.908;2023-10-09T15:47:04;11.05;;;5.53;;
21162;SDS011;10739;52.198;20.908;2023-10-09T15:49:34;9.45;;;5.70;;
21162;SDS011;10739;52.198;20.908;2023-10-09T15:52:03;11.85;;;5.47;;
21162;SDS011;10739;52.198;20.908;2023-10-09T15:54:33;18.48;;;5.85;;
21162;SDS011;10739;52.198;20.908;2023-10-09T15:56:59;12.35;;;5.70;;